メインページ
METAR-TAF:

METAR-TAF

空港 :

仁川国際空港, 大韓民国

緯度: 37-28N, 経度: 126-27E, 海抜: 7m

現時点の気象観測

当レポートは28分前の20:00(UTC)に作成
西/南西の風 1kt
気温 25°C
湿度 83%
気圧 1003 hPa
視程: 5000m
高度4000ftの雲は散在している
高度12000ftの千切れ雲あり

METAR: RKSI 232000Z 24001KT 5000 BR SCT040 BKN120 25/22 Q1003 NOSIG

時間: 05:28 (20:28 UTC)

予報

当レポートは3時間28分前の17:00(UTC)に作成
予報は23日の 18時(UTC)から 24日の 24時(UTC)まで有効
西/南西の風 5kt
視程: 3500m
高度1000ftの雲はほとんどない
高度4000ftの雲は散在している
高度12000ftの千切れ雲あり
23日の 22時(UTC)から 23日の 23時(UTC)まで徐々に
西の風 9kt
視程: 6000m
24日の 00時(UTC)から 24日の 02時(UTC)まで一時的に
高度500ftの雲はほとんどない
高度2500ftの千切れ雲あり
高度10000ftの曇り
小雨
24日の 11時(UTC)から 24日の 12時(UTC)まで徐々に
西/北西の風 5kt
視程: 4200m
24日の 20時(UTC)から 24日の 21時(UTC)まで徐々に
高度1000ftの雲はほとんどない
高度3000ftの千切れ雲あり
高度12000ftの千切れ雲あり
24日の 23時(UTC)から 24日の 24時(UTC)まで徐々に
東/北東の風 7kt
視程: 6000m
高度1000ftの雲はほとんどない
高度4000ftの雲は散在している
高度12000ftの千切れ雲あり

TAF: RKSI 231700Z 2318/2424 24005KT 3500 BR FEW010 SCT040 BKN120 TN24/2321Z TX30/2406Z TN25/2421Z BECMG 2322/2323 27009KT 6000 NSW TEMPO 2400/2402 -RA FEW005 BKN025 OVC100 BECMG 2411/2412 30005KT 4200 BR BECMG 2420/2421 FEW010 BKN030 BKN120 BECMG 2423/2424 07007KT 6000 NSW FEW010 SCT040 BKN120

4,000以上の空港の気象観測と天気予報(METAR報とTAF報)

利用可能な観測所は地図上に黄色い丸と赤い丸で示す。

丸の上にカーソルを重ねると観測所名を参照できる。

次にクリックすると気象観測と天気予報を参照できる。

マップの切り替え:黒色「×」印の緑ボタンをクリックして拡大、「-」印の緑ボタンをクリックして縮小、緑色の三角印をクリックして隣りの地図に切り替え


METAR-TAF: